sensor_id;sensor_type;location;lat;lon;timestamp;P1;durP1;ratioP1;P2;durP2;ratioP2
13075;SDS011;6604;52.484;13.330;2022-09-25T07:48:37;13.33;;;10.00;;
13075;SDS011;6604;52.484;13.330;2022-09-25T07:51:04;12.53;;;10.37;;
13075;SDS011;6604;52.484;13.330;2022-09-25T07:53:31;12.33;;;10.37;;
13075;SDS011;6604;52.484;13.330;2022-09-25T07:55:57;12.10;;;10.47;;
13075;SDS011;6604;52.484;13.330;2022-09-25T07:58:24;12.87;;;10.10;;
13075;SDS011;6604;52.484;13.330;2022-09-25T08:00:51;11.27;;;10.00;;
13075;SDS011;6604;52.484;13.330;2022-09-25T08:03:18;14.13;;;12.33;;
13075;SDS011;6604;52.484;13.330;2022-09-25T08:05:46;11.20;;;10.00;;
13075;SDS011;6604;52.484;13.330;2022-09-25T08:08:13;13.77;;;10.00;;
13075;SDS011;6604;52.484;13.330;2022-09-25T08:10:39;11.70;;;10.37;;
13075;SDS011;6604;52.484;13.330;2022-09-25T08:13:05;12.73;;;10.20;;
13075;SDS011;6604;52.484;13.330;2022-09-25T08:15:32;11.73;;;10.53;;
13075;SDS011;6604;52.484;13.330;2022-09-25T08:17:58;11.33;;;10.13;;
13075;SDS011;6604;52.484;13.330;2022-09-25T08:20:24;15.07;;;11.40;;
13075;SDS011;6604;52.484;13.330;2022-09-25T08:22:53;13.13;;;10.73;;
13075;SDS011;6604;52.484;13.330;2022-09-25T08:25:21;11.53;;;10.33;;
13075;SDS011;6604;52.484;13.330;2022-09-25T08:27:47;11.63;;;10.17;;
13075;SDS011;6604;52.484;13.330;2022-09-25T08:30:14;14.50;;;9.90;;
13075;SDS011;6604;52.484;13.330;2022-09-25T08:32:41;12.97;;;10.47;;
13075;SDS011;6604;52.484;13.330;2022-09-25T08:35:08;11.27;;;10.07;;
13075;SDS011;6604;52.484;13.330;2022-09-25T08:37:38;12.43;;;10.53;;
13075;SDS011;6604;52.484;13.330;2022-09-25T08:40:16;15.27;;;10.20;;
13075;SDS011;6604;52.484;13.330;2022-09-25T08:42:43;12.43;;;10.73;;
13075;SDS011;6604;52.484;13.330;2022-09-25T08:45:15;12.90;;;10.80;;
13075;SDS011;6604;52.484;13.330;2022-09-25T08:48:01;12.43;;;11.10;;
13075;SDS011;6604;52.484;13.330;2022-09-25T08:50:45;13.47;;;10.60;;
13075;SDS011;6604;52.484;13.330;2022-09-25T08:53:14;12.30;;;10.70;;
13075;SDS011;6604;52.484;13.330;2022-09-25T08:55:44;13.03;;;10.80;;
13075;SDS011;6604;52.484;13.330;2022-09-25T08:58:30;11.23;;;10.03;;
13075;SDS011;6604;52.484;13.330;2022-09-25T09:01:04;12.33;;;10.47;;
13075;SDS011;6604;52.484;13.330;2022-09-25T09:03:32;13.27;;;10.83;;
13075;SDS011;6604;52.484;13.330;2022-09-25T09:06:00;11.53;;;10.27;;
13075;SDS011;6604;52.484;13.330;2022-09-25T09:08:28;13.23;;;11.53;;
13075;SDS011;6604;52.484;13.330;2022-09-25T09:10:58;11.83;;;10.40;;
13075;SDS011;6604;52.484;13.330;2022-09-25T09:13:26;13.57;;;11.30;;
13075;SDS011;6604;52.484;13.330;2022-09-25T09:15:56;12.90;;;11.00;;
13075;SDS011;6604;52.484;13.330;2022-09-25T09:18:24;11.30;;;10.10;;
13075;SDS011;6604;52.484;13.330;2022-09-25T09:20:55;11.87;;;10.03;;
13075;SDS011;6604;52.484;13.330;2022-09-25T09:23:22;14.10;;;11.00;;
13075;SDS011;6604;52.484;13.330;2022-09-25T09:25:54;13.67;;;10.80;;
13075;SDS011;6604;52.484;13.330;2022-09-25T09:28:30;11.70;;;10.47;;
13075;SDS011;6604;52.484;13.330;2022-09-25T09:31:04;13.13;;;10.80;;
13075;SDS011;6604;52.484;13.330;2022-09-25T09:33:35;15.47;;;11.07;;
13075;SDS011;6604;52.484;13.330;2022-09-25T09:36:06;11.57;;;10.37;;
13075;SDS011;6604;52.484;13.330;2022-09-25T09:38:37;14.57;;;11.47;;
13075;SDS011;6604;52.484;13.330;2022-09-25T09:41:14;12.27;;;10.80;;
13075;SDS011;6604;52.484;13.330;2022-09-25T09:43:51;14.70;;;11.70;;
13075;SDS011;6604;52.484;13.330;2022-09-25T09:46:21;12.33;;;10.93;;
13075;SDS011;6604;52.484;13.330;2022-09-25T09:48:54;12.93;;;11.20;;
13075;SDS011;6604;52.484;13.330;2022-09-25T09:51:24;12.17;;;10.83;;
13075;SDS011;6604;52.484;13.330;2022-09-25T09:53:53;11.80;;;10.60;;
13075;SDS011;6604;52.484;13.330;2022-09-25T09:56:22;15.30;;;11.17;;
13075;SDS011;6604;52.484;13.330;2022-09-25T09:58:52;13.30;;;11.37;;
13075;SDS011;6604;52.484;13.330;2022-09-25T10:01:19;11.97;;;10.27;;
13075;SDS011;6604;52.484;13.330;2022-09-25T10:03:46;13.33;;;11.23;;
13075;SDS011;6604;52.484;13.330;2022-09-25T10:06:14;12.93;;;10.87;;
13075;SDS011;6604;52.484;13.330;2022-09-25T10:08:41;11.60;;;10.40;;
13075;SDS011;6604;52.484;13.330;2022-09-25T10:11:09;13.30;;;10.80;;
13075;SDS011;6604;52.484;13.330;2022-09-25T10:13:38;11.80;;;10.40;;
13075;SDS011;6604;52.484;13.330;2022-09-25T10:16:09;12.20;;;10.17;;
13075;SDS011;6604;52.484;13.330;2022-09-25T10:18:38;11.17;;;10.03;;
13075;SDS011;6604;52.484;13.330;2022-09-25T10:21:08;14.50;;;10.03;;
13075;SDS011;6604;52.484;13.330;2022-09-25T10:23:36;11.57;;;10.40;;
13075;SDS011;6604;52.484;13.330;2022-09-25T10:26:04;12.30;;;10.80;;
13075;SDS011;6604;52.484;13.330;2022-09-25T10:28:47;11.97;;;9.53;;
13075;SDS011;6604;52.484;13.330;2022-09-25T10:31:15;10.67;;;9.57;;
13075;SDS011;6604;52.484;13.330;2022-09-25T10:33:42;12.20;;;10.40;;
13075;SDS011;6604;52.484;13.330;2022-09-25T10:36:28;12.43;;;10.03;;
13075;SDS011;6604;52.484;13.330;2022-09-25T10:38:55;11.43;;;9.37;;
13075;SDS011;6604;52.484;13.330;2022-09-25T10:41:23;12.00;;;8.57;;
13075;SDS011;6604;52.484;13.330;2022-09-25T10:43:50;9.83;;;8.83;;
13075;SDS011;6604;52.484;13.330;2022-09-25T10:46:27;10.23;;;7.80;;
13075;SDS011;6604;52.484;13.330;2022-09-25T10:49:11;9.67;;;8.07;;
13075;SDS011;6604;52.484;13.330;2022-09-25T10:52:00;9.23;;;8.17;;
13075;SDS011;6604;52.484;13.330;2022-09-25T10:54:26;9.60;;;8.60;;
13075;SDS011;6604;52.484;13.330;2022-09-25T10:56:55;9.53;;;8.53;;
13075;SDS011;6604;52.484;13.330;2022-09-25T10:59:21;9.70;;;8.70;;
13075;SDS011;6604;52.484;13.330;2022-09-25T11:01:50;9.43;;;8.43;;
13075;SDS011;6604;52.484;13.330;2022-09-25T11:04:18;9.53;;;8.53;;
13075;SDS011;6604;52.484;13.330;2022-09-25T11:06:46;10.07;;;8.87;;
13075;SDS011;6604;52.484;13.330;2022-09-25T11:09:13;11.50;;;9.33;;
13075;SDS011;6604;52.484;13.330;2022-09-25T11:11:41;9.33;;;8.33;;
13075;SDS011;6604;52.484;13.330;2022-09-25T11:16:40;9.90;;;8.90;;
13075;SDS011;6604;52.484;13.330;2022-09-25T11:19:11;14.63;;;10.17;;
13075;SDS011;6604;52.484;13.330;2022-09-25T11:21:39;10.83;;;9.73;;
13075;SDS011;6604;52.484;13.330;2022-09-25T11:24:12;10.67;;;9.57;;
13075;SDS011;6604;52.484;13.330;2022-09-25T11:26:39;9.20;;;8.30;;
13075;SDS011;6604;52.484;13.330;2022-09-25T11:29:10;10.77;;;8.40;;
13075;SDS011;6604;52.484;13.330;2022-09-25T11:31:39;10.10;;;9.10;;
13075;SDS011;6604;52.484;13.330;2022-09-25T11:34:08;10.17;;;8.80;;
13075;SDS011;6604;52.484;13.330;2022-09-25T11:36:40;9.23;;;8.23;;
13075;SDS011;6604;52.484;13.330;2022-09-25T11:39:10;12.20;;;8.27;;
13075;SDS011;6604;52.484;13.330;2022-09-25T11:42:06;10.80;;;8.27;;
13075;SDS011;6604;52.484;13.330;2022-09-25T11:44:35;11.73;;;9.70;;
13075;SDS011;6604;52.484;13.330;2022-09-25T11:47:05;10.00;;;8.60;;
13075;SDS011;6604;52.484;13.330;2022-09-25T11:49:33;9.20;;;7.67;;
13075;SDS011;6604;52.484;13.330;2022-09-25T11:52:18;12.37;;;7.77;;
13075;SDS011;6604;52.484;13.330;2022-09-25T11:54:49;7.73;;;6.60;;
13075;SDS011;6604;52.484;13.330;2022-09-25T11:57:20;8.03;;;6.40;;
13075;SDS011;6604;52.484;13.330;2022-09-25T11:59:56;7.67;;;6.47;;
13075;SDS011;6604;52.484;13.330;2022-09-25T12:02:27;10.97;;;6.93;;
13075;SDS011;6604;52.484;13.330;2022-09-25T12:05:12;14.03;;;11.90;;
13075;SDS011;6604;52.484;13.330;2022-09-25T12:07:53;8.87;;;7.80;;
13075;SDS011;6604;52.484;13.330;2022-09-25T12:10:28;7.03;;;6.17;;
13075;SDS011;6604;52.484;13.330;2022-09-25T12:12:58;6.50;;;5.90;;
13075;SDS011;6604;52.484;13.330;2022-09-25T12:15:32;7.23;;;6.00;;
13075;SDS011;6604;52.484;13.330;2022-09-25T12:18:05;6.40;;;5.63;;
13075;SDS011;6604;52.484;13.330;2022-09-25T12:20:36;7.87;;;5.90;;
13075;SDS011;6604;52.484;13.330;2022-09-25T12:23:10;6.00;;;5.40;;
13075;SDS011;6604;52.484;13.330;2022-09-25T12:25:44;6.80;;;6.10;;
13075;SDS011;6604;52.484;13.330;2022-09-25T12:28:16;6.80;;;5.33;;
13075;SDS011;6604;52.484;13.330;2022-09-25T12:30:46;6.20;;;5.60;;
13075;SDS011;6604;52.484;13.330;2022-09-25T12:33:17;6.87;;;5.80;;
13075;SDS011;6604;52.484;13.330;2022-09-25T12:35:48;6.33;;;5.70;;
13075;SDS011;6604;52.484;13.330;2022-09-25T12:38:26;7.20;;;5.67;;
13075;SDS011;6604;52.484;13.330;2022-09-25T12:40:56;5.97;;;5.37;;
13075;SDS011;6604;52.484;13.330;2022-09-25T12:43:25;6.00;;;5.40;;
13075;SDS011;6604;52.484;13.330;2022-09-25T12:45:54;7.73;;;5.40;;
13075;SDS011;6604;52.484;13.330;2022-09-25T12:48:23;7.30;;;6.27;;
13075;SDS011;6604;52.484;13.330;2022-09-25T12:50:53;6.10;;;5.50;;
13075;SDS011;6604;52.484;13.330;2022-09-25T12:53:22;8.03;;;5.77;;
13075;SDS011;6604;52.484;13.330;2022-09-25T12:55:54;6.27;;;5.57;;
13075;SDS011;6604;52.484;13.330;2022-09-25T12:58:23;6.37;;;5.77;;
13075;SDS011;6604;52.484;13.330;2022-09-25T13:00:54;7.83;;;5.67;;
13075;SDS011;6604;52.484;13.330;2022-09-25T13:03:22;7.67;;;6.10;;
13075;SDS011;6604;52.484;13.330;2022-09-25T13:06:04;7.03;;;5.33;;
13075;SDS011;6604;52.484;13.330;2022-09-25T13:08:32;7.07;;;6.00;;
13075;SDS011;6604;52.484;13.330;2022-09-25T13:11:04;6.90;;;6.30;;
13075;SDS011;6604;52.484;13.330;2022-09-25T13:13:34;7.13;;;5.97;;
13075;SDS011;6604;52.484;13.330;2022-09-25T13:16:02;6.90;;;6.03;;
13075;SDS011;6604;52.484;13.330;2022-09-25T13:18:29;10.60;;;7.50;;
13075;SDS011;6604;52.484;13.330;2022-09-25T13:20:58;14.23;;;11.67;;
13075;SDS011;6604;52.484;13.330;2022-09-25T13:23:26;11.23;;;10.00;;
13075;SDS011;6604;52.484;13.330;2022-09-25T13:25:55;8.17;;;6.73;;
13075;SDS011;6604;52.484;13.330;2022-09-25T13:28:26;9.27;;;6.77;;
13075;SDS011;6604;52.484;13.330;2022-09-25T13:31:02;9.50;;;7.57;;
13075;SDS011;6604;52.484;13.330;2022-09-25T13:33:30;8.13;;;7.33;;
13075;SDS011;6604;52.484;13.330;2022-09-25T13:36:04;7.63;;;6.90;;
13075;SDS011;6604;52.484;13.330;2022-09-25T13:38:31;9.50;;;7.53;;
13075;SDS011;6604;52.484;13.330;2022-09-25T13:41:21;8.17;;;7.37;;
13075;SDS011;6604;52.484;13.330;2022-09-25T13:43:48;10.27;;;9.27;;
13075;SDS011;6604;52.484;13.330;2022-09-25T13:46:35;9.70;;;7.93;;
13075;SDS011;6604;52.484;13.330;2022-09-25T13:49:31;8.90;;;8.00;;
13075;SDS011;6604;52.484;13.330;2022-09-25T13:51:58;9.90;;;7.30;;
13075;SDS011;6604;52.484;13.330;2022-09-25T13:54:24;7.77;;;6.97;;
13075;SDS011;6604;52.484;13.330;2022-09-25T13:56:52;8.70;;;7.80;;
13075;SDS011;6604;52.484;13.330;2022-09-25T13:59:24;7.80;;;7.10;;
13075;SDS011;6604;52.484;13.330;2022-09-25T14:04:42;8.47;;;7.67;;
13075;SDS011;6604;52.484;13.330;2022-09-25T14:07:11;8.77;;;7.93;;
13075;SDS011;6604;52.484;13.330;2022-09-25T14:09:41;9.60;;;7.87;;
13075;SDS011;6604;52.484;13.330;2022-09-25T14:12:09;8.13;;;7.33;;
13075;SDS011;6604;52.484;13.330;2022-09-25T14:14:42;8.77;;;7.87;;
13075;SDS011;6604;52.484;13.330;2022-09-25T14:17:16;8.20;;;7.50;;
13075;SDS011;6604;52.484;13.330;2022-09-25T14:19:43;9.27;;;8.10;;
13075;SDS011;6604;52.484;13.330;2022-09-25T14:22:16;8.70;;;7.90;;
13075;SDS011;6604;52.484;13.330;2022-09-25T14:24:44;9.00;;;8.10;;
13075;SDS011;6604;52.484;13.330;2022-09-25T14:27:13;9.43;;;8.47;;
13075;SDS011;6604;52.484;13.330;2022-09-25T14:29:42;9.17;;;8.27;;
13075;SDS011;6604;52.484;13.330;2022-09-25T14:32:15;9.87;;;8.87;;
13075;SDS011;6604;52.484;13.330;2022-09-25T14:34:52;9.17;;;7.97;;
13075;SDS011;6604;52.484;13.330;2022-09-25T14:37:30;10.37;;;9.37;;
13075;SDS011;6604;52.484;13.330;2022-09-25T14:40:01;11.00;;;9.80;;
13075;SDS011;6604;52.484;13.330;2022-09-25T14:42:31;9.20;;;8.20;;
13075;SDS011;6604;52.484;13.330;2022-09-25T14:45:09;9.83;;;7.80;;
13075;SDS011;6604;52.484;13.330;2022-09-25T14:47:42;10.03;;;7.57;;
13075;SDS011;6604;52.484;13.330;2022-09-25T14:50:09;8.00;;;7.20;;
13075;SDS011;6604;52.484;13.330;2022-09-25T14:52:42;10.53;;;7.50;;
13075;SDS011;6604;52.484;13.330;2022-09-25T14:55:09;8.20;;;7.40;;
13075;SDS011;6604;52.484;13.330;2022-09-25T14:57:40;8.37;;;7.50;;
13075;SDS011;6604;52.484;13.330;2022-09-25T15:00:12;7.83;;;7.03;;
13075;SDS011;6604;52.484;13.330;2022-09-25T15:02:41;7.87;;;7.00;;
13075;SDS011;6604;52.484;13.330;2022-09-25T15:05:16;8.70;;;7.20;;
13075;SDS011;6604;52.484;13.330;2022-09-25T15:07:43;8.30;;;7.40;;
13075;SDS011;6604;52.484;13.330;2022-09-25T15:10:18;8.40;;;7.10;;
13075;SDS011;6604;52.484;13.330;2022-09-25T15:12:49;8.53;;;7.63;;
13075;SDS011;6604;52.484;13.330;2022-09-25T15:15:17;8.73;;;7.77;;
13075;SDS011;6604;52.484;13.330;2022-09-25T15:17:46;10.87;;;8.00;;
13075;SDS011;6604;52.484;13.330;2022-09-25T15:20:14;8.80;;;7.90;;
13075;SDS011;6604;52.484;13.330;2022-09-25T15:22:41;7.77;;;7.07;;
13075;SDS011;6604;52.484;13.330;2022-09-25T15:25:10;8.17;;;7.23;;
13075;SDS011;6604;52.484;13.330;2022-09-25T15:27:41;9.00;;;6.87;;
13075;SDS011;6604;52.484;13.330;2022-09-25T15:30:13;7.83;;;7.10;;
13075;SDS011;6604;52.484;13.330;2022-09-25T15:32:42;8.23;;;6.73;;
13075;SDS011;6604;52.484;13.330;2022-09-25T15:35:19;8.37;;;6.83;;
13075;SDS011;6604;52.484;13.330;2022-09-25T15:37:46;7.90;;;7.03;;
13075;SDS011;6604;52.484;13.330;2022-09-25T15:40:17;8.53;;;6.57;;
13075;SDS011;6604;52.484;13.330;2022-09-25T15:42:44;7.83;;;6.90;;
13075;SDS011;6604;52.484;13.330;2022-09-25T15:45:24;8.30;;;7.40;;
13075;SDS011;6604;52.484;13.330;2022-09-25T15:47:54;7.57;;;6.80;;
13075;SDS011;6604;52.484;13.330;2022-09-25T15:50:21;7.77;;;6.97;;
13075;SDS011;6604;52.484;13.330;2022-09-25T15:52:49;8.70;;;6.90;;
13075;SDS011;6604;52.484;13.330;2022-09-25T15:55:16;8.00;;;7.20;;
13075;SDS011;6604;52.484;13.330;2022-09-25T15:57:43;8.13;;;6.63;;
13075;SDS011;6604;52.484;13.330;2022-09-25T16:00:15;7.80;;;6.53;;
13075;SDS011;6604;52.484;13.330;2022-09-25T16:03:03;9.20;;;7.97;;
13075;SDS011;6604;52.484;13.330;2022-09-25T16:05:48;125.10;;;12.23;;
13075;SDS011;6604;52.484;13.330;2022-09-25T16:08:21;20.70;;;6.90;;
13075;SDS011;6604;52.484;13.330;2022-09-25T16:10:52;8.47;;;6.17;;
13075;SDS011;6604;52.484;13.330;2022-09-25T16:13:28;18.00;;;6.67;;
13075;SDS011;6604;52.484;13.330;2022-09-25T16:15:54;8.83;;;6.40;;
13075;SDS011;6604;52.484;13.330;2022-09-25T16:18:28;22.30;;;7.23;;
13075;SDS011;6604;52.484;13.330;2022-09-25T16:20:57;12.00;;;6.70;;
13075;SDS011;6604;52.484;13.330;2022-09-25T16:23:32;9.97;;;6.37;;
13075;SDS011;6604;52.484;13.330;2022-09-25T16:25:59;9.53;;;6.30;;
13075;SDS011;6604;52.484;13.330;2022-09-25T16:28:26;7.50;;;6.10;;
13075;SDS011;6604;52.484;13.330;2022-09-25T16:30:55;6.17;;;5.57;;
13075;SDS011;6604;52.484;13.330;2022-09-25T16:33:22;6.03;;;5.43;;
13075;SDS011;6604;52.484;13.330;2022-09-25T16:35:51;6.17;;;5.30;;
13075;SDS011;6604;52.484;13.330;2022-09-25T16:38:24;6.10;;;5.50;;
13075;SDS011;6604;52.484;13.330;2022-09-25T16:40:59;7.83;;;6.33;;
13075;SDS011;6604;52.484;13.330;2022-09-25T16:43:27;6.33;;;5.70;;
13075;SDS011;6604;52.484;13.330;2022-09-25T16:45:57;5.83;;;5.20;;
13075;SDS011;6604;52.484;13.330;2022-09-25T16:48:26;6.20;;;5.60;;
13075;SDS011;6604;52.484;13.330;2022-09-25T16:50:54;6.83;;;6.07;;
13075;SDS011;6604;52.484;13.330;2022-09-25T16:53:20;6.07;;;5.40;;
13075;SDS011;6604;52.484;13.330;2022-09-25T16:55:51;6.60;;;5.57;;
13075;SDS011;6604;52.484;13.330;2022-09-25T16:58:18;5.90;;;5.40;;
13075;SDS011;6604;52.484;13.330;2022-09-25T17:00:44;6.43;;;5.83;;
13075;SDS011;6604;52.484;13.330;2022-09-25T17:03:11;6.57;;;5.90;;
13075;SDS011;6604;52.484;13.330;2022-09-25T17:05:37;6.23;;;5.73;;
13075;SDS011;6604;52.484;13.330;2022-09-25T17:08:09;6.57;;;5.87;;
13075;SDS011;6604;52.484;13.330;2022-09-25T17:10:38;6.67;;;5.87;;
13075;SDS011;6604;52.484;13.330;2022-09-25T17:13:05;5.93;;;5.43;;
13075;SDS011;6604;52.484;13.330;2022-09-25T17:15:32;6.27;;;5.67;;
13075;SDS011;6604;52.484;13.330;2022-09-25T17:17:59;6.23;;;5.63;;
13075;SDS011;6604;52.484;13.330;2022-09-25T17:20:27;5.90;;;5.40;;
13075;SDS011;6604;52.484;13.330;2022-09-25T17:22:57;6.13;;;5.53;;
13075;SDS011;6604;52.484;13.330;2022-09-25T17:25:30;6.70;;;6.00;;
13075;SDS011;6604;52.484;13.330;2022-09-25T17:28:02;6.70;;;5.90;;
13075;SDS011;6604;52.484;13.330;2022-09-25T17:30:36;5.53;;;5.03;;
13075;SDS011;6604;52.484;13.330;2022-09-25T17:33:03;7.20;;;5.50;;
13075;SDS011;6604;52.484;13.330;2022-09-25T17:35:36;6.10;;;5.30;;
13075;SDS011;6604;52.484;13.330;2022-09-25T17:38:02;6.13;;;5.53;;
13075;SDS011;6604;52.484;13.330;2022-09-25T17:40:31;5.70;;;5.20;;
13075;SDS011;6604;52.484;13.330;2022-09-25T17:42:58;6.93;;;5.47;;
13075;SDS011;6604;52.484;13.330;2022-09-25T17:45:27;6.30;;;5.27;;
13075;SDS011;6604;52.484;13.330;2022-09-25T17:48:02;5.97;;;5.37;;
13075;SDS011;6604;52.484;13.330;2022-09-25T17:50:28;5.37;;;4.87;;
13075;SDS011;6604;52.484;13.330;2022-09-25T17:53:01;5.67;;;5.10;;
13075;SDS011;6604;52.484;13.330;2022-09-25T17:55:29;7.60;;;5.57;;
13075;SDS011;6604;52.484;13.330;2022-09-25T17:57:57;7.43;;;5.40;;
13075;SDS011;6604;52.484;13.330;2022-09-25T18:00:24;5.60;;;5.00;;
13075;SDS011;6604;52.484;13.330;2022-09-25T18:02:50;6.37;;;5.73;;
13075;SDS011;6604;52.484;13.330;2022-09-25T18:05:17;7.40;;;5.63;;
13075;SDS011;6604;52.484;13.330;2022-09-25T18:07:43;6.67;;;5.60;;
13075;SDS011;6604;52.484;13.330;2022-09-25T18:10:10;6.07;;;5.47;;
13075;SDS011;6604;52.484;13.330;2022-09-25T18:12:37;6.03;;;5.43;;
13075;SDS011;6604;52.484;13.330;2022-09-25T18:15:05;5.47;;;4.87;;
13075;SDS011;6604;52.484;13.330;2022-09-25T18:17:32;5.67;;;5.13;;
13075;SDS011;6604;52.484;13.330;2022-09-25T18:19:58;6.00;;;5.40;;
13075;SDS011;6604;52.484;13.330;2022-09-25T18:22:42;5.67;;;4.70;;
13075;SDS011;6604;52.484;13.330;2022-09-25T18:25:09;7.30;;;4.70;;
13075;SDS011;6604;52.484;13.330;2022-09-25T18:27:35;5.57;;;4.50;;
13075;SDS011;6604;52.484;13.330;2022-09-25T18:30:05;7.30;;;4.33;;
13075;SDS011;6604;52.484;13.330;2022-09-25T18:32:32;7.30;;;5.20;;
13075;SDS011;6604;52.484;13.330;2022-09-25T18:34:58;5.43;;;4.67;;
13075;SDS011;6604;52.484;13.330;2022-09-25T18:37:26;5.97;;;5.07;;
13075;SDS011;6604;52.484;13.330;2022-09-25T18:39:52;6.00;;;4.90;;
13075;SDS011;6604;52.484;13.330;2022-09-25T18:42:22;5.10;;;4.60;;
13075;SDS011;6604;52.484;13.330;2022-09-25T18:44:48;4.70;;;4.30;;
13075;SDS011;6604;52.484;13.330;2022-09-25T18:47:19;6.53;;;4.90;;
13075;SDS011;6604;52.484;13.330;2022-09-25T18:49:45;6.20;;;4.60;;
13075;SDS011;6604;52.484;13.330;2022-09-25T18:52:12;5.50;;;4.80;;
13075;SDS011;6604;52.484;13.330;2022-09-25T18:54:39;6.00;;;4.87;;
13075;SDS011;6604;52.484;13.330;2022-09-25T18:57:06;5.13;;;4.73;;
13075;SDS011;6604;52.484;13.330;2022-09-25T18:59:33;5.07;;;4.60;;
13075;SDS011;6604;52.484;13.330;2022-09-25T19:02:00;5.47;;;4.70;;
13075;SDS011;6604;52.484;13.330;2022-09-25T19:04:32;6.00;;;4.87;;
13075;SDS011;6604;52.484;13.330;2022-09-25T19:07:02;5.67;;;4.80;;
13075;SDS011;6604;52.484;13.330;2022-09-25T19:09:31;4.70;;;4.30;;
13075;SDS011;6604;52.484;13.330;2022-09-25T19:12:05;5.40;;;4.53;;
13075;SDS011;6604;52.484;13.330;2022-09-25T19:14:34;5.17;;;4.67;;
13075;SDS011;6604;52.484;13.330;2022-09-25T19:17:07;7.03;;;5.07;;
13075;SDS011;6604;52.484;13.330;2022-09-25T19:19:38;5.37;;;4.87;;
13075;SDS011;6604;52.484;13.330;2022-09-25T19:22:06;6.57;;;4.87;;
13075;SDS011;6604;52.484;13.330;2022-09-25T19:24:38;5.70;;;4.93;;
13075;SDS011;6604;52.484;13.330;2022-09-25T19:27:06;5.20;;;4.70;;
13075;SDS011;6604;52.484;13.330;2022-09-25T19:29:32;5.27;;;4.77;;
13075;SDS011;6604;52.484;13.330;2022-09-25T19:32:01;5.17;;;4.67;;
13075;SDS011;6604;52.484;13.330;2022-09-25T19:34:33;5.33;;;4.77;;
13075;SDS011;6604;52.484;13.330;2022-09-25T19:37:01;4.73;;;4.33;;
13075;SDS011;6604;52.484;13.330;2022-09-25T19:39:28;5.10;;;4.60;;
13075;SDS011;6604;52.484;13.330;2022-09-25T19:41:54;5.13;;;4.50;;
13075;SDS011;6604;52.484;13.330;2022-09-25T19:44:21;5.27;;;4.73;;
13075;SDS011;6604;52.484;13.330;2022-09-25T19:46:48;4.73;;;4.33;;
13075;SDS011;6604;52.484;13.330;2022-09-25T19:49:15;4.80;;;4.37;;
13075;SDS011;6604;52.484;13.330;2022-09-25T19:51:42;5.43;;;4.70;;
13075;SDS011;6604;52.484;13.330;2022-09-25T19:54:11;7.87;;;4.43;;
13075;SDS011;6604;52.484;13.330;2022-09-25T19:56:38;5.67;;;4.77;;
13075;SDS011;6604;52.484;13.330;2022-09-25T19:59:06;5.43;;;4.93;;
13075;SDS011;6604;52.484;13.330;2022-09-25T20:01:32;5.27;;;4.77;;
13075;SDS011;6604;52.484;13.330;2022-09-25T20:03:59;5.47;;;4.97;;
13075;SDS011;6604;52.484;13.330;2022-09-25T20:06:27;5.17;;;4.67;;
13075;SDS011;6604;52.484;13.330;2022-09-25T20:08:56;6.50;;;5.10;;
13075;SDS011;6604;52.484;13.330;2022-09-25T20:11:24;5.27;;;4.77;;
13075;SDS011;6604;52.484;13.330;2022-09-25T20:13:51;5.43;;;4.93;;
13075;SDS011;6604;52.484;13.330;2022-09-25T20:16:18;7.33;;;5.20;;
13075;SDS011;6604;52.484;13.330;2022-09-25T20:18:46;5.23;;;4.80;;
13075;SDS011;6604;52.484;13.330;2022-09-25T20:21:12;5.40;;;4.90;;
13075;SDS011;6604;52.484;13.330;2022-09-25T20:23:41;5.47;;;4.97;;
13075;SDS011;6604;52.484;13.330;2022-09-25T20:26:08;5.53;;;5.00;;
13075;SDS011;6604;52.484;13.330;2022-09-25T20:28:37;5.10;;;4.60;;
13075;SDS011;6604;52.484;13.330;2022-09-25T20:31:04;5.20;;;4.67;;
13075;SDS011;6604;52.484;13.330;2022-09-25T20:33:30;5.53;;;4.80;;
13075;SDS011;6604;52.484;13.330;2022-09-25T20:35:58;4.87;;;4.40;;
13075;SDS011;6604;52.484;13.330;2022-09-25T20:38:24;5.70;;;4.87;;
13075;SDS011;6604;52.484;13.330;2022-09-25T20:40:51;6.77;;;4.90;;
13075;SDS011;6604;52.484;13.330;2022-09-25T20:43:17;5.23;;;4.60;;
13075;SDS011;6604;52.484;13.330;2022-09-25T20:45:55;4.70;;;4.30;;
13075;SDS011;6604;52.484;13.330;2022-09-25T20:48:21;5.97;;;4.77;;
13075;SDS011;6604;52.484;13.330;2022-09-25T20:50:48;4.93;;;4.47;;
13075;SDS011;6604;52.484;13.330;2022-09-25T20:53:15;5.40;;;4.50;;
13075;SDS011;6604;52.484;13.330;2022-09-25T20:55:41;6.70;;;6.00;;
13075;SDS011;6604;52.484;13.330;2022-09-25T20:58:08;5.97;;;4.63;;
13075;SDS011;6604;52.484;13.330;2022-09-25T21:00:34;4.87;;;4.43;;
13075;SDS011;6604;52.484;13.330;2022-09-25T21:03:02;7.20;;;4.80;;
13075;SDS011;6604;52.484;13.330;2022-09-25T21:05:29;5.93;;;5.10;;
13075;SDS011;6604;52.484;13.330;2022-09-25T21:07:55;5.50;;;4.90;;
13075;SDS011;6604;52.484;13.330;2022-09-25T21:10:21;5.87;;;4.73;;
13075;SDS011;6604;52.484;13.330;2022-09-25T21:12:48;5.07;;;4.57;;
13075;SDS011;6604;52.484;13.330;2022-09-25T21:15:15;5.33;;;4.80;;
13075;SDS011;6604;52.484;13.330;2022-09-25T21:17:41;5.43;;;4.90;;
13075;SDS011;6604;52.484;13.330;2022-09-25T21:20:09;5.83;;;4.93;;
13075;SDS011;6604;52.484;13.330;2022-09-25T21:22:43;5.20;;;4.70;;
13075;SDS011;6604;52.484;13.330;2022-09-25T21:25:09;5.07;;;4.50;;
13075;SDS011;6604;52.484;13.330;2022-09-25T21:27:36;5.43;;;4.93;;
13075;SDS011;6604;52.484;13.330;2022-09-25T21:30:03;4.90;;;4.50;;
